Flight Track Log - Related Links

Times and Time Zones

All times are in EDT time to prevent confusion due to time zone crossing. See the SKW4664 flight status page for this flight to view local times or setup timezone preferences in your user account.

Time Position Orientation Groundspeed Altitude Reporting Facility
EDT Latitude Longitude Course Direction KTS MPH feet Rate Location/Type
Fri 12:11:04 PM 43.6033 -96.7250 52° Northeast 149 171 2,500  Level Minneapolis Center
Fri 12:12:06 PM 43.6389 -96.6553 55° Northeast 183 211 4,700 2,323 Climbing Minneapolis Center
Fri 12:13:08 PM 43.6792 -96.5831 52° Northeast 209 241 7,300 2,585 Climbing Minneapolis Center
Fri 12:14:00 PM 43.8416 -96.2544 53° Northeast  Level FlightAware Approximate
Fri 12:14:09 PM 43.7222 -96.5050 53° Northeast 236 272 10,000  Level Minneapolis Center
Fri 12:15:00 PM 43.9086 -96.1314 53° Northeast  Level FlightAware Approximate
Fri 12:15:11 PM 43.7681 -96.4219 53° Northeast 254 292 12,100  Level Minneapolis Center
Fri 12:16:00 PM 43.9766 -96.0091 52° Northeast  Level FlightAware Approximate
Fri 12:16:13 PM 43.8206 -96.3264 53° Northeast 290 334 13,800  Level Minneapolis Center
Fri 12:17:14 PM 43.8767 -96.2247 53° Northeast 326 375 15,500 1,756 Climbing Minneapolis Center
Fri 12:18:16 PM 43.9472 -96.0969 52° Northeast 349 402 17,400 1,306 Climbing Minneapolis Center
Fri 12:19:18 PM 44.0078 -95.9861 53° Northeast 364 419 18,200 1,024 Climbing Minneapolis Center
Fri 12:20:19 PM 44.0708 -95.8717 52° Northeast 376 433 19,500 1,220 Climbing Minneapolis Center
Fri 12:21:21 PM 44.1353 -95.7514 53° Northeast 386 444 20,700 726 Climbing Minneapolis Center
Fri 12:22:23 PM 44.2017 -95.6289 53° Northeast 394 453 21,000 146 Climbing Minneapolis Center
Fri 12:23:24 PM 44.2689 -95.5058 53° Northeast 399 459 21,000  Level Minneapolis Center
Fri 12:24:26 PM 44.3467 -95.3581 54° Northeast 397 457 21,000  Level Minneapolis Center
Fri 12:25:28 PM 44.4106 -95.2361 54° Northeast 394 453 21,000 -44 Level Minneapolis Center
Fri 12:26:41 PM 44.4736 -95.1133 54° Northeast 391 450 20,900 -844 Descending Minneapolis Center
Fri 12:27:43 PM 44.5125 -94.9356 73° East 400 460 19,100 -1,452 Descending Minneapolis Center
Fri 12:28:45 PM 44.5422 -94.8142 71° East 410 472 17,900 -1,171 Descending Minneapolis Center
Fri 12:29:46 PM 44.5728 -94.6781 72° East 386 444 16,700 -1,463 Descending Minneapolis Center
Fri 12:30:48 PM 44.6081 -94.5281 72° East 346 398 14,900 -1,742 Descending Minneapolis Center
Fri 12:31:50 PM 44.6422 -94.3778 72° East 338 389 13,100 -1,500 Descending Minneapolis Center
Fri 12:32:52 PM 44.6706 -94.2542 72° East 336 387 11,800 -1,024 Descending Minneapolis Center
Fri 12:33:53 PM 44.6981 -94.1331 72° East 327 376 11,000 -390 Descending Minneapolis Center
Fri 12:34:55 PM 44.7244 -94.0144 73° East 321 369 11,000  Level Minneapolis Center
Fri 12:35:57 PM 44.7514 -93.8931 73° East 326 375 11,000  Level Minneapolis Center
Fri 12:37:11 PM 44.7797 -93.7694 72° East 332 382 11,000  Level Minneapolis Center
Fri 12:38:13 PM 44.8128 -93.6192 73° East 335 386 11,000 -195 Level Minneapolis Center
Fri 12:39:14 PM 44.8439 -93.4764 73° East 315 362 10,600 -585 Descending Minneapolis Center
Fri 12:40:16 PM 44.8692 -93.3947 66° East 291 335 9,800 -1,258 Descending Minneapolis Center
Fri 12:41:18 PM 44.8236 -93.2906 122° Southeast 270 311 8,000 -1,548 Descending Minneapolis Center
Fri 12:42:20 PM 44.7781 -93.2058 127° Southeast 264 304 6,600 -1,317 Descending Minneapolis Center
Fri 12:43:21 PM 44.7436 -93.1131 118° Southeast 260 299 5,300 -976 Descending Minneapolis Center
Fri 12:44:23 PM 44.7408 -93.0269 93° East 223 257 4,600 -629 Descending Minneapolis Center
Fri 12:45:25 PM 44.7914 -93.0078 15° North 211 243 4,000 -581 Descending Minneapolis Center

Login

Don't have an account? Register now (free) for customized features, flight alerts, and more!